SRQ113 RPLL-RPVE
Flight info
| Callsign | SRQ113 |
|---|---|
| Flight time | N/A |
| Altitude | 15000 |
| Route | VERDE W24 TAPER TAPER7B/06 |
| Aircraft | AT76/M-SDFGIRY/S |
Departure
| Time | N/A |
|---|---|
| Airport | Ninoy Aquino International Airport (RPLL) |
Arrival
| Time | 2026-04-25 14:17 |
|---|---|
| Airport | Godofredo P. Ramos Airport (RPVE) |
| Time | Latitude | Longitude | Altitude | Speed | Heading |
|---|---|---|---|---|---|
| 2026-04-25 14:04 | 12.06417 | 121.82983 | 5013 ft | 180 kts | 24° |
| 2026-04-25 14:05 | 12.09990 | 121.84465 | 5008 ft | 196 kts | 355° |
| 2026-04-25 14:05 | 12.11198 | 121.83760 | 5001 ft | 212 kts | 313° |
| 2026-04-25 14:05 | 12.11745 | 121.82354 | 5000 ft | 220 kts | 273° |
| 2026-04-25 14:06 | 12.11355 | 121.80872 | 5009 ft | 218 kts | 233° |
| 2026-04-25 14:06 | 12.10211 | 121.79957 | 5007 ft | 211 kts | 194° |
| 2026-04-25 14:06 | 12.08772 | 121.79855 | 5007 ft | 203 kts | 173° |
| 2026-04-25 14:06 | 12.07371 | 121.79898 | 5001 ft | 205 kts | 175° |
| 2026-04-25 14:07 | 12.05917 | 121.79901 | 4999 ft | 207 kts | 176° |
| 2026-04-25 14:07 | 12.04492 | 121.79804 | 4999 ft | 210 kts | 183° |
| 2026-04-25 14:07 | 12.03032 | 121.79550 | 4871 ft | 218 kts | 187° |
| 2026-04-25 14:07 | 12.01520 | 121.79163 | 4675 ft | 229 kts | 193° |
| 2026-04-25 14:08 | 12.00019 | 121.78574 | 4541 ft | 232 kts | 201° |
| 2026-04-25 14:08 | 11.98593 | 121.77797 | 4398 ft | 233 kts | 207° |
| 2026-04-25 14:08 | 11.97223 | 121.76918 | 4242 ft | 232 kts | 210° |
| 2026-04-25 14:08 | 11.95874 | 121.76014 | 4089 ft | 232 kts | 210° |
| 2026-04-25 14:09 | 11.94525 | 121.75108 | 3949 ft | 231 kts | 210° |
| 2026-04-25 14:09 | 11.93186 | 121.74219 | 3871 ft | 228 kts | 209° |
| 2026-04-25 14:09 | 11.91807 | 121.73537 | 3827 ft | 213 kts | 184° |
| 2026-04-25 14:09 | 11.91317 | 121.73507 | 3822 ft | 206 kts | 171° |
| 2026-04-25 14:10 | 11.89104 | 121.73999 | 3811 ft | 188 kts | 155° |
| 2026-04-25 14:10 | 11.87924 | 121.74495 | 3803 ft | 180 kts | 149° |
| 2026-04-25 14:10 | 11.86806 | 121.75063 | 3689 ft | 181 kts | 146° |
| 2026-04-25 14:10 | 11.85694 | 121.75662 | 3523 ft | 179 kts | 146° |
| 2026-04-25 14:11 | 11.84611 | 121.76263 | 3352 ft | 173 kts | 139° |
| 2026-04-25 14:11 | 11.84133 | 121.76884 | 3240 ft | 163 kts | 106° |
| 2026-04-25 14:11 | 11.84213 | 121.78347 | 3041 ft | 156 kts | 76° |
| 2026-04-25 14:11 | 11.84404 | 121.79051 | 3003 ft | 155 kts | 73° |
| 2026-04-25 14:12 | 11.84785 | 121.80088 | 2956 ft | 155 kts | 68° |
| 2026-04-25 14:12 | 11.85226 | 121.81068 | 2917 ft | 148 kts | 66° |
| 2026-04-25 14:12 | 11.85835 | 121.82284 | 2834 ft | 138 kts | 64° |
| 2026-04-25 14:12 | 11.86127 | 121.82851 | 2800 ft | 134 kts | 64° |
| 2026-04-25 14:13 | 11.86556 | 121.83671 | 2745 ft | 128 kts | 64° |
| 2026-04-25 14:13 | 11.86953 | 121.84430 | 2724 ft | 113 kts | 64° |
| 2026-04-25 14:13 | 11.87313 | 121.85111 | 2686 ft | 108 kts | 63° |
| 2026-04-25 14:13 | 11.87695 | 121.85770 | 2616 ft | 109 kts | 61° |
| 2026-04-25 14:14 | 11.88085 | 121.86429 | 2544 ft | 109 kts | 62° |
| 2026-04-25 14:14 | 11.88468 | 121.87091 | 2489 ft | 108 kts | 62° |
| 2026-04-25 14:14 | 11.88800 | 121.87774 | 2417 ft | 107 kts | 68° |
| 2026-04-25 14:14 | 11.89129 | 121.88459 | 2371 ft | 109 kts | 64° |
| 2026-04-25 14:15 | 11.89499 | 121.89170 | 2228 ft | 117 kts | 64° |
| 2026-04-25 14:15 | 11.89735 | 121.89676 | 2083 ft | 121 kts | 65° |
| 2026-04-25 14:15 | 11.90227 | 121.90758 | 1782 ft | 128 kts | 67° |
| 2026-04-25 14:15 | 11.90570 | 121.91587 | 1548 ft | 124 kts | 66° |
| 2026-04-25 14:16 | 11.90924 | 121.92384 | 1275 ft | 123 kts | 63° |
| 2026-04-25 14:16 | 11.91321 | 121.93168 | 970 ft | 127 kts | 64° |
| 2026-04-25 14:16 | 11.91718 | 121.93955 | 594 ft | 124 kts | 60° |
| 2026-04-25 14:16 | 11.92116 | 121.94715 | 276 ft | 116 kts | 62° |
| 2026-04-25 14:17 | 11.92475 | 121.95426 | 38 ft | 105 kts | 62° |
| 2026-04-25 14:17 | 11.92664 | 121.95820 | 25 ft | 16 kts | 65° |
| 2026-04-25 14:17 | 11.92704 | 121.95907 | 29 ft | 24 kts | 64° |
| 2026-04-25 14:17 | 11.92773 | 121.96035 | 27 ft | 14 kts | 62° |
| 2026-04-25 14:18 | 11.92796 | 121.96089 | 27 ft | 7 kts | 78° |
| 2026-04-25 14:18 | 11.92782 | 121.96128 | 27 ft | 6 kts | 144° |
| 2026-04-25 14:18 | 11.92739 | 121.96151 | 27 ft | 8 kts | 153° |
| 2026-04-25 14:18 | 11.92718 | 121.96162 | 27 ft | 0 kts | 153° |
| 2026-04-25 14:19 | 11.92664 | 121.96191 | 27 ft | 9 kts | 152° |
| 2026-04-25 14:19 | 11.92639 | 121.96214 | 27 ft | 4 kts | 128° |
| 2026-04-25 14:19 | 11.92637 | 121.96215 | 27 ft | 1 kts | 139° |
| 2026-04-25 14:19 | 11.92630 | 121.96218 | 27 ft | 0 kts | 174° |
| 2026-04-25 14:20 | 11.92624 | 121.96211 | 27 ft | 5 kts | 222° |
| 2026-04-25 14:20 | 11.92602 | 121.96203 | 27 ft | 7 kts | 181° |
| 2026-04-25 14:20 | 11.92548 | 121.96228 | 27 ft | 8 kts | 147° |
| 2026-04-25 14:20 | 11.92523 | 121.96240 | 27 ft | 7 kts | 159° |
| 2026-04-25 14:21 | 11.92496 | 121.96257 | 27 ft | 5 kts | 118° |
| 2026-04-25 14:21 | 11.92504 | 121.96274 | 27 ft | 4 kts | 46° |
| 2026-04-25 14:21 | 11.92520 | 121.96302 | 27 ft | 0 kts | 64° |
| 2026-04-25 14:21 | 11.92516 | 121.96295 | 27 ft | 0 kts | 64° |
| 2026-04-25 14:22 | 11.92520 | 121.96303 | 27 ft | 0 kts | 65° |